createdAt,value
2019-03-08T00:01:58.623Z,98192.77
2019-03-08T00:04:30.006Z,98201.32
2019-03-08T00:07:01.346Z,98202.65
2019-03-08T00:09:33.581Z,98202.36
2019-03-08T00:12:04.906Z,98204.71
2019-03-08T00:14:36.224Z,98202.05
2019-03-08T00:17:09.219Z,98206.04
2019-03-08T00:19:40.625Z,98201.80
2019-03-08T00:22:12.085Z,98205.48
2019-03-08T00:24:43.523Z,98212.88
2019-03-08T00:27:15.068Z,98207.79
2019-03-08T00:29:46.465Z,98215.53
2019-03-08T00:32:17.791Z,98222.43
2019-03-08T00:34:49.256Z,98218.75
2019-03-08T00:37:20.895Z,98205.77
2019-03-08T00:39:52.448Z,98210.31
2019-03-08T00:42:23.799Z,98214.12
2019-03-08T00:44:55.184Z,98210.14
2019-03-08T00:47:26.692Z,98209.37
2019-03-08T00:49:58.235Z,98212.59
2019-03-08T00:52:29.590Z,98213.14
2019-03-08T00:55:00.892Z,98206.52
2019-03-08T00:57:32.338Z,98205.48
2019-03-08T01:00:05.246Z,98209.46
2019-03-08T01:02:37.163Z,98204.45
2019-03-08T01:05:09.463Z,98205.78
2019-03-08T01:07:41.036Z,98204.45
2019-03-08T01:10:14.197Z,98205.78
2019-03-08T01:12:45.713Z,98209.21
2019-03-08T01:15:18.008Z,98201.92
2019-03-08T01:17:49.399Z,98204.44
2019-03-08T01:20:20.916Z,98202.09
2019-03-08T01:22:52.196Z,98198.62
2019-03-08T01:25:23.717Z,98198.62
2019-03-08T01:28:02.992Z,98197.89
2019-03-08T01:30:34.952Z,98196.94
2019-03-08T01:33:06.870Z,98202.00
2019-03-08T01:35:38.241Z,98198.82
2019-03-08T01:38:09.565Z,98203.32
2019-03-08T01:40:40.927Z,98193.70
2019-03-08T01:43:12.884Z,98203.24
2019-03-08T01:45:44.151Z,98032.04
2019-03-08T01:48:15.578Z,98192.76
2019-03-08T01:50:47.019Z,98190.31
2019-03-08T01:53:18.357Z,98190.49
2019-03-08T01:55:49.850Z,98182.45
2019-03-08T01:58:21.432Z,98181.30
2019-03-08T02:00:52.749Z,98176.47
2019-03-08T02:03:24.148Z,98178.30
2019-03-08T02:05:55.652Z,98172.39
2019-03-08T02:08:26.991Z,98166.02
2019-03-08T02:11:00.278Z,98172.64
2019-03-08T02:13:31.603Z,98174.74
2019-03-08T02:16:02.987Z,98181.42
2019-03-08T02:18:34.388Z,98182.27
2019-03-08T02:21:07.020Z,98182.83
2019-03-08T02:23:38.850Z,98185.23
2019-03-08T02:26:10.309Z,98183.48
2019-03-08T02:28:41.681Z,98183.30
2019-03-08T02:31:13.181Z,98186.84
2019-03-08T02:33:46.146Z,98185.78
2019-03-08T02:36:17.535Z,98183.09
2019-03-08T02:38:48.858Z,98190.49
2019-03-08T02:41:20.211Z,98186.00
2019-03-08T02:43:51.542Z,98186.81
2019-03-08T02:46:22.814Z,98193.70
2019-03-08T02:48:54.237Z,98190.27
2019-03-08T02:51:25.748Z,98188.36
2019-03-08T02:53:57.167Z,98189.13
2019-03-08T02:56:28.447Z,98188.05
2019-03-08T02:59:00.060Z,98189.85
2019-03-08T03:01:31.577Z,98191.39
2019-03-08T03:04:03.083Z,98197.17
2019-03-08T03:06:34.473Z,98199.52
2019-03-08T03:09:06.930Z,98197.09
2019-03-08T03:11:40.437Z,98199.75
2019-03-08T03:14:11.833Z,98198.76
2019-03-08T03:16:44.970Z,98201.03
2019-03-08T03:19:16.596Z,98212.11
2019-03-08T03:21:48.283Z,98203.03
2019-03-08T03:24:20.028Z,98198.42
2019-03-08T03:26:51.471Z,98206.00
2019-03-08T03:29:22.786Z,98211.69
2019-03-08T03:31:54.133Z,98211.80
2019-03-08T03:34:25.813Z,98212.69
2019-03-08T03:36:57.298Z,98207.78
2019-03-08T03:39:28.676Z,98201.05
2019-03-08T03:42:02.070Z,98194.55
2019-03-08T03:44:40.730Z,98201.39
2019-03-08T03:47:16.681Z,98204.30
2019-03-08T03:49:48.272Z,98187.75
2019-03-08T03:52:19.708Z,98187.81
2019-03-08T03:54:51.130Z,98206.75
2019-03-08T03:57:22.498Z,98197.44
2019-03-08T03:59:53.936Z,98204.09
2019-03-08T04:02:25.755Z,98211.44
2019-03-08T04:04:57.102Z,98214.58
2019-03-08T04:07:28.381Z,98213.16
2019-03-08T04:09:59.759Z,98194.51
2019-03-08T04:12:31.256Z,98201.97
2019-03-08T04:15:04.069Z,98203.33
2019-03-08T04:17:35.910Z,98207.93
2019-03-08T04:20:09.051Z,98207.98
2019-03-08T04:22:40.559Z,98194.26
2019-03-08T04:25:13.248Z,98196.69
2019-03-08T04:27:44.727Z,98199.47
2019-03-08T04:30:21.026Z,98197.38
2019-03-08T04:32:54.812Z,98189.97
2019-03-08T04:35:34.395Z,98198.42
2019-03-08T04:38:12.005Z,98200.06
2019-03-08T04:40:45.483Z,98201.78
2019-03-08T04:43:16.960Z,98190.68
2019-03-08T04:45:48.516Z,98197.77
2019-03-08T04:48:28.809Z,98205.70
2019-03-08T04:51:04.785Z,98197.55
2019-03-08T04:53:36.331Z,98208.97
2019-03-08T04:56:13.229Z,98207.94
2019-03-08T04:58:48.060Z,98214.27
2019-03-08T05:01:27.498Z,98196.17
2019-03-08T05:04:10.937Z,98202.06
2019-03-08T05:07:03.359Z,98197.61
2019-03-08T05:09:34.940Z,98197.13
2019-03-08T05:12:06.650Z,98203.51
2019-03-08T05:14:45.110Z,98204.53
2019-03-08T05:17:16.729Z,98206.41
2019-03-08T05:19:51.358Z,98207.78
2019-03-08T05:22:23.685Z,98204.75
2019-03-08T05:25:20.411Z,98209.36
2019-03-08T05:27:59.079Z,98209.36
2019-03-08T05:30:36.066Z,98209.47
2019-03-08T05:33:07.922Z,98217.75
2019-03-08T05:35:41.533Z,98222.41
2019-03-08T05:38:13.157Z,98223.95
2019-03-08T05:40:48.759Z,98227.08
2019-03-08T05:43:38.102Z,98232.92
2019-03-08T05:46:13.893Z,98225.17
2019-03-08T05:48:51.687Z,98225.93
2019-03-08T05:51:26.130Z,98219.02
2019-03-08T05:53:58.989Z,98218.79
2019-03-08T05:56:39.271Z,98219.59
2019-03-08T05:59:10.870Z,98219.42
2019-03-08T06:01:48.760Z,98217.55
2019-03-08T06:04:21.295Z,98217.02
2019-03-08T06:07:03.381Z,98228.00
2019-03-08T06:09:40.755Z,98225.94
2019-03-08T06:12:19.319Z,98230.20
2019-03-08T06:14:59.886Z,98235.55
2019-03-08T06:17:40.080Z,98233.16
2019-03-08T06:20:11.535Z,98242.78
2019-03-08T06:22:43.076Z,98232.05
2019-03-08T06:25:14.517Z,98177.63
2019-03-08T06:27:46.632Z,98245.90
2019-03-08T06:30:22.813Z,98252.66
2019-03-08T06:32:54.543Z,98245.20
2019-03-08T06:35:25.935Z,98256.23
2019-03-08T06:37:57.337Z,98251.69
2019-03-08T06:40:29.762Z,98262.35
2019-03-08T06:43:02.243Z,98264.23
2019-03-08T06:45:34.119Z,98259.20
2019-03-08T06:48:10.229Z,98106.75
2019-03-08T06:50:41.771Z,98271.76
2019-03-08T06:53:15.187Z,98269.38
2019-03-08T06:55:46.714Z,98270.95
2019-03-08T06:58:39.294Z,98270.23
2019-03-08T07:01:13.900Z,98272.67
2019-03-08T07:03:45.531Z,98275.90
2019-03-08T07:06:23.243Z,98282.58
2019-03-08T07:08:55.508Z,98290.09
2019-03-08T07:11:30.816Z,98287.42
2019-03-08T07:14:04.300Z,98288.02
2019-03-08T07:16:42.074Z,98304.35
2019-03-08T07:19:13.523Z,98311.86
2019-03-08T07:21:59.678Z,98312.12
2019-03-08T07:24:50.622Z,98311.14
2019-03-08T07:27:45.674Z,98317.58
2019-03-08T07:30:36.244Z,98310.94
2019-03-08T07:33:16.423Z,98306.72
2019-03-08T07:36:01.148Z,98305.09
2019-03-08T07:39:08.103Z,98310.20
2019-03-08T07:41:59.277Z,98310.20
2019-03-08T07:44:55.983Z,98315.34
2019-03-08T07:47:49.700Z,98315.34
2019-03-08T07:50:40.610Z,98319.38
2019-03-08T07:53:33.675Z,98313.75
2019-03-08T07:56:15.803Z,98318.83
2019-03-08T07:59:19.856Z,98324.98
2019-03-08T08:02:25.237Z,98325.78
2019-03-08T08:05:28.887Z,98330.54
2019-03-08T08:08:13.068Z,98341.48
2019-03-08T08:11:05.021Z,98334.22
2019-03-08T08:14:06.989Z,98332.05
2019-03-08T08:17:00.419Z,98338.50
2019-03-08T08:19:56.913Z,98335.55
2019-03-08T08:22:57.122Z,98339.55
2019-03-08T08:25:47.768Z,98337.66
2019-03-08T08:28:27.668Z,98343.19
2019-03-08T08:31:21.770Z,98342.30
2019-03-08T08:34:12.212Z,98341.63
2019-03-08T08:37:17.659Z,98347.10
2019-03-08T08:40:11.273Z,98348.75
2019-03-08T08:43:01.385Z,98360.53
2019-03-08T08:45:54.877Z,98366.91
2019-03-08T08:48:53.442Z,98362.61
2019-03-08T08:52:02.818Z,98360.04
2019-03-08T08:54:52.252Z,98369.02
2019-03-08T08:57:45.680Z,98366.53
2019-03-08T09:00:27.588Z,98378.61
2019-03-08T09:03:30.807Z,98375.61
2019-03-08T09:06:27.418Z,98373.95
2019-03-08T09:09:24.213Z,98379.21
2019-03-08T09:12:07.333Z,98373.27
2019-03-08T09:14:53.590Z,98383.41
2019-03-08T09:17:42.489Z,98380.20
2019-03-08T09:20:35.863Z,98383.95
2019-03-08T09:23:24.890Z,98389.11
2019-03-08T09:26:08.237Z,98382.26
2019-03-08T09:28:54.524Z,98381.98
2019-03-08T09:31:44.935Z,98389.14
2019-03-08T09:34:31.820Z,98400.72
2019-03-08T09:37:12.799Z,98387.63
2019-03-08T09:40:12.372Z,98403.55
2019-03-08T09:42:59.647Z,98398.74
2019-03-08T09:45:48.743Z,98411.38
2019-03-08T09:48:39.358Z,98419.97
2019-03-08T09:51:24.383Z,98417.29
2019-03-08T09:54:02.722Z,98415.66
2019-03-08T09:56:53.100Z,98426.70
2019-03-08T09:59:33.480Z,98429.16
2019-03-08T10:02:17.055Z,98429.95
2019-03-08T10:05:06.971Z,98433.05
2019-03-08T10:08:00.532Z,98436.65
2019-03-08T10:10:59.511Z,98426.79
2019-03-08T10:13:56.766Z,98427.38
2019-03-08T10:16:50.353Z,98416.41
2019-03-08T10:19:40.891Z,98428.19
2019-03-08T10:22:27.486Z,98431.13
2019-03-08T10:25:18.346Z,98425.07
2019-03-08T10:27:56.759Z,98433.58
2019-03-08T10:30:37.011Z,98443.67
2019-03-08T10:33:17.959Z,98449.16
2019-03-08T10:36:11.648Z,98451.93
2019-03-08T10:38:54.380Z,98453.65
2019-03-08T10:41:44.603Z,98453.23
2019-03-08T10:44:40.693Z,98449.38
2019-03-08T10:47:39.568Z,98456.20
2019-03-08T10:50:24.979Z,98439.16
2019-03-08T10:53:05.432Z,98435.37
2019-03-08T10:55:57.589Z,98437.76
2019-03-08T10:58:48.724Z,98431.70
2019-03-08T11:01:40.495Z,98429.09
2019-03-08T11:04:36.899Z,98431.97
2019-03-08T11:07:35.270Z,98428.69
2019-03-08T11:10:26.298Z,98437.57
2019-03-08T11:13:27.554Z,98437.20
2019-03-08T11:16:24.975Z,98440.20
2019-03-08T11:19:17.087Z,98432.48
2019-03-08T11:22:17.130Z,98433.98
2019-03-08T11:25:10.586Z,98437.96
2019-03-08T11:28:20.984Z,98431.50
2019-03-08T11:31:05.322Z,98435.27
2019-03-08T11:34:07.771Z,98434.77
2019-03-08T11:36:44.257Z,98444.59
2019-03-08T11:39:45.474Z,98439.77
2019-03-08T11:42:37.168Z,98428.66
2019-03-08T11:45:31.748Z,98431.09
2019-03-08T11:48:26.890Z,98425.22
2019-03-08T11:51:38.509Z,98421.88
2019-03-08T11:54:46.014Z,98420.80
2019-03-08T11:57:35.179Z,98423.30
2019-03-08T12:00:24.355Z,98429.88
2019-03-08T12:03:13.490Z,98427.99
2019-03-08T12:05:58.014Z,98428.46
2019-03-08T12:08:48.328Z,98437.84
2019-03-08T12:11:40.466Z,98437.55
2019-03-08T12:14:38.334Z,98425.87
2019-03-08T12:17:27.525Z,98419.38
2019-03-08T12:20:23.791Z,98432.19
2019-03-08T12:23:08.331Z,98425.26
2019-03-08T12:25:46.314Z,98425.16
2019-03-08T12:28:35.683Z,98426.11
2019-03-08T12:31:27.095Z,98435.62
2019-03-08T12:34:17.171Z,98432.55
2019-03-08T12:37:12.477Z,98423.02
2019-03-08T12:40:03.180Z,98426.55
2019-03-08T12:42:50.624Z,98428.52
2019-03-08T12:45:31.828Z,98411.92
2019-03-08T12:48:23.893Z,98435.31
2019-03-08T12:51:10.526Z,98441.57
2019-03-08T12:54:10.188Z,98433.21
2019-03-08T12:57:08.928Z,98440.30
2019-03-08T13:00:08.807Z,98441.13
2019-03-08T13:02:49.657Z,98446.76
2019-03-08T13:05:35.883Z,98441.42
2019-03-08T13:08:24.849Z,98444.19
2019-03-08T13:10:56.277Z,98455.16
2019-03-08T13:13:27.697Z,98446.24
2019-03-08T13:15:59.113Z,98451.06
2019-03-08T13:18:30.859Z,98453.74
2019-03-08T13:21:02.462Z,98457.25
2019-03-08T13:23:34.098Z,98451.32
2019-03-08T13:26:05.467Z,98461.29
2019-03-08T13:28:36.944Z,98458.39
2019-03-08T13:31:08.782Z,98467.81
2019-03-08T13:33:40.191Z,98482.38
2019-03-08T13:36:11.604Z,98487.42
2019-03-08T13:38:43.091Z,98485.56
2019-03-08T13:41:14.491Z,98488.54
2019-03-08T13:43:46.036Z,98482.36
2019-03-08T13:46:17.533Z,98482.80
2019-03-08T13:48:49.142Z,98487.64
2019-03-08T13:51:20.730Z,98489.05
2019-03-08T13:53:52.202Z,98490.38
2019-03-08T13:56:23.486Z,98490.98
2019-03-08T13:58:54.842Z,98492.05
2019-03-08T14:01:26.305Z,98494.67
2019-03-08T14:03:57.666Z,98479.44
2019-03-08T14:06:29.323Z,98479.44
2019-03-08T14:09:00.615Z,98475.18
2019-03-08T14:11:31.910Z,98481.81
2019-03-08T14:14:03.288Z,98484.16
2019-03-08T14:16:34.642Z,98489.05
2019-03-08T14:19:06.463Z,98493.56
2019-03-08T14:21:37.965Z,98492.45
2019-03-08T14:24:09.724Z,98505.91
2019-03-08T14:26:41.235Z,98500.52
2019-03-08T14:29:12.835Z,98516.70
2019-03-08T14:32:09.092Z,98516.70
2019-03-08T14:34:42.103Z,98516.67
2019-03-08T14:37:16.098Z,98521.54
2019-03-08T14:39:46.448Z,98527.73
2019-03-08T14:42:31.591Z,98530.80
2019-03-08T14:45:10.595Z,98534.86
2019-03-08T14:48:05.842Z,98532.25
2019-03-08T14:50:36.971Z,98528.77
2019-03-08T14:53:08.440Z,98528.81
2019-03-08T14:55:39.770Z,98537.13
2019-03-08T14:58:12.468Z,98537.41
2019-03-08T15:00:43.967Z,98540.35
2019-03-08T15:03:15.481Z,98543.31
2019-03-08T15:05:46.947Z,98554.03
2019-03-08T15:08:19.284Z,98548.14
2019-03-08T15:10:51.458Z,98559.91
2019-03-08T15:13:24.075Z,98552.66
2019-03-08T15:15:57.821Z,98565.26
2019-03-08T15:18:29.765Z,98565.79
2019-03-08T15:21:02.201Z,98571.15
2019-03-08T15:23:33.625Z,98579.16
2019-03-08T15:26:06.022Z,98586.13
2019-03-08T15:28:37.452Z,98581.58
2019-03-08T15:31:09.110Z,98581.83
2019-03-08T15:33:40.624Z,98590.67
2019-03-08T15:36:11.975Z,98593.88
2019-03-08T15:38:44.020Z,98597.62
2019-03-08T15:41:15.852Z,98602.72
2019-03-08T15:43:51.353Z,98609.41
2019-03-08T15:46:22.385Z,98620.89
2019-03-08T15:48:54.826Z,98618.22
2019-03-08T15:51:26.999Z,98624.08
2019-03-08T15:53:58.441Z,98633.67
2019-03-08T15:56:29.754Z,98629.44
2019-03-08T15:59:03.284Z,98622.73
2019-03-08T16:01:34.997Z,98622.73
2019-03-08T16:04:08.247Z,98632.62
2019-03-08T16:06:43.219Z,98630.47
2019-03-08T16:09:12.698Z,98636.64
2019-03-08T16:11:46.020Z,98641.98
2019-03-08T16:14:17.167Z,98649.50
2019-03-08T16:16:48.806Z,98653.72
2019-03-08T16:19:20.815Z,98661.75
2019-03-08T16:21:53.153Z,98671.09
2019-03-08T16:24:27.182Z,98675.12
2019-03-08T16:26:58.805Z,98685.75
2019-03-08T16:29:30.834Z,98676.60
2019-03-08T16:32:14.087Z,98685.11
2019-03-08T16:34:45.246Z,98686.41
2019-03-08T16:37:38.031Z,98685.62
2019-03-08T16:40:43.239Z,98694.41
2019-03-08T16:43:42.116Z,98683.77
2019-03-08T16:46:34.274Z,98683.77
2019-03-08T16:49:20.949Z,98686.16
2019-03-08T16:52:14.050Z,98680.70
2019-03-08T16:55:01.680Z,98691.39
2019-03-08T16:57:54.998Z,98702.89
2019-03-08T17:00:40.542Z,98702.91
2019-03-08T17:03:26.423Z,98723.05
2019-03-08T17:06:05.310Z,98731.93
2019-03-08T17:09:01.796Z,98737.48
2019-03-08T17:11:48.807Z,98737.48
2019-03-08T17:14:33.252Z,98738.70
2019-03-08T17:17:21.697Z,98748.75
2019-03-08T17:20:15.041Z,98760.94
2019-03-08T17:23:08.614Z,98777.54
2019-03-08T17:25:58.952Z,98772.53
2019-03-08T17:28:45.298Z,98786.09
2019-03-08T17:31:23.738Z,98781.78
2019-03-08T17:34:02.681Z,98791.08
2019-03-08T17:36:43.039Z,98785.11
2019-03-08T17:39:19.109Z,98780.98
2019-03-08T17:42:08.361Z,98783.56
2019-03-08T17:44:57.555Z,98779.80
2019-03-08T17:47:51.010Z,98783.66
2019-03-08T17:50:44.552Z,98781.73
2019-03-08T17:53:35.085Z,98782.47
2019-03-08T17:56:19.830Z,98781.52
2019-03-08T17:58:57.821Z,98784.14
2019-03-08T18:01:44.381Z,98783.48
2019-03-08T18:04:37.838Z,98777.77
2019-03-08T18:07:21.039Z,98782.14
2019-03-08T18:10:10.106Z,98782.91
2019-03-08T18:13:15.863Z,98782.91
2019-03-08T18:16:07.371Z,98801.30
2019-03-08T18:18:57.648Z,98802.84
2019-03-08T18:21:56.616Z,98801.11
2019-03-08T18:24:48.864Z,98802.02
2019-03-08T18:27:42.208Z,98799.50
2019-03-08T18:30:26.405Z,98814.41
2019-03-08T18:33:16.682Z,98827.87
2019-03-08T18:36:12.715Z,98833.29
2019-03-08T18:39:12.628Z,98821.37
2019-03-08T18:42:18.230Z,98829.10
2019-03-08T18:45:07.226Z,98830.77
2019-03-08T18:48:06.700Z,98828.73
2019-03-08T18:51:01.360Z,98840.73
2019-03-08T18:53:54.984Z,98829.80
2019-03-08T18:56:56.819Z,98839.95
2019-03-08T18:59:37.898Z,98845.03
2019-03-08T19:02:27.075Z,98855.95
2019-03-08T19:05:29.353Z,98864.80
2019-03-08T19:08:28.923Z,98867.53
2019-03-08T19:11:10.210Z,98862.09
2019-03-08T19:13:49.582Z,98872.79
2019-03-08T19:16:35.936Z,98880.94
2019-03-08T19:19:26.233Z,98883.15
2019-03-08T19:22:16.009Z,98883.80
2019-03-08T19:24:52.712Z,98877.77
2019-03-08T19:27:45.917Z,98881.31
2019-03-08T19:30:39.601Z,98892.81
2019-03-08T19:33:27.157Z,98888.55
2019-03-08T19:36:10.587Z,98890.01
2019-03-08T19:39:01.176Z,98896.30
2019-03-08T19:41:48.087Z,98893.84
2019-03-08T19:44:26.562Z,98896.95
2019-03-08T19:47:09.859Z,98896.81
2019-03-08T19:49:58.817Z,98895.02
2019-03-08T19:53:09.251Z,98896.07
2019-03-08T19:55:58.541Z,98895.19
2019-03-08T19:58:47.704Z,98901.88
2019-03-08T20:01:43.115Z,98910.20
2019-03-08T20:04:18.864Z,98916.93
2019-03-08T20:07:08.124Z,98926.14
2019-03-08T20:09:56.657Z,98929.74
2019-03-08T20:12:47.418Z,98930.73
2019-03-08T20:15:37.686Z,98932.26
2019-03-08T20:18:22.475Z,98928.56
2019-03-08T20:21:04.139Z,98930.47
2019-03-08T20:23:51.712Z,98932.61
2019-03-08T20:26:40.631Z,98935.62
2019-03-08T20:29:41.212Z,98942.13
2019-03-08T20:32:31.352Z,98925.43
2019-03-08T20:35:08.379Z,98952.42
2019-03-08T20:38:01.825Z,98950.95
2019-03-08T20:40:55.354Z,98957.27
2019-03-08T20:43:35.549Z,98963.78
2019-03-08T20:46:10.213Z,98965.93
2019-03-08T20:48:41.529Z,98962.95
2019-03-08T20:51:13.160Z,98972.20
2019-03-08T20:53:44.989Z,98974.22
2019-03-08T20:56:16.436Z,98981.16
2019-03-08T20:58:48.058Z,98979.37
2019-03-08T21:01:19.381Z,98971.64
2019-03-08T21:03:50.762Z,98983.53
2019-03-08T21:06:22.306Z,98974.67
2019-03-08T21:08:53.613Z,98991.93
2019-03-08T21:11:25.024Z,98994.51
2019-03-08T21:13:56.742Z,98994.28
2019-03-08T21:16:28.105Z,98997.72
2019-03-08T21:18:59.656Z,98998.23
2019-03-08T21:21:31.209Z,99005.03
2019-03-08T21:24:02.505Z,99005.52
2019-03-08T21:26:34.048Z,99011.48
2019-03-08T21:29:05.817Z,99012.53
2019-03-08T21:31:37.309Z,99017.48
2019-03-08T21:34:09.714Z,99019.52
2019-03-08T21:36:41.234Z,99020.25
2019-03-08T21:39:14.102Z,99023.13
2019-03-08T21:41:45.438Z,99018.53
2019-03-08T21:44:16.918Z,99017.85
2019-03-08T21:46:51.535Z,99021.66
2019-03-08T21:49:22.915Z,99025.07
2019-03-08T21:51:54.270Z,99034.52
2019-03-08T21:54:25.536Z,99038.30
2019-03-08T21:56:59.924Z,99033.66
2019-03-08T21:59:31.249Z,99031.95
2019-03-08T22:02:02.645Z,99036.47
2019-03-08T22:04:38.177Z,99034.23
2019-03-08T22:07:11.186Z,99033.73
2019-03-08T22:09:47.021Z,99037.34
2019-03-08T22:12:21.472Z,99037.44
2019-03-08T22:14:52.943Z,99039.90
2019-03-08T22:17:24.623Z,99038.98
2019-03-08T22:19:56.020Z,99038.89
2019-03-08T22:22:27.345Z,99039.30
2019-03-08T22:24:59.057Z,99046.02
2019-03-08T22:27:36.537Z,99033.19
2019-03-08T22:30:10.888Z,99026.38
2019-03-08T22:32:42.294Z,99025.37
2019-03-08T22:35:14.646Z,99033.34
2019-03-08T22:37:45.996Z,99036.48
2019-03-08T22:40:17.294Z,99042.19
2019-03-08T22:42:48.580Z,99041.59
2019-03-08T22:45:19.853Z,99041.77
2019-03-08T22:47:52.948Z,99034.77
2019-03-08T22:50:24.359Z,99039.55
2019-03-08T22:52:55.773Z,99039.64
2019-03-08T22:55:27.050Z,99029.27
2019-03-08T22:57:58.396Z,99029.06
2019-03-08T23:00:53.044Z,99025.50
2019-03-08T23:03:24.630Z,99024.30
2019-03-08T23:05:55.994Z,99025.70
2019-03-08T23:08:27.583Z,99018.99
2019-03-08T23:11:00.854Z,99013.70
2019-03-08T23:13:32.305Z,99020.53
2019-03-08T23:16:03.645Z,99025.59
2019-03-08T23:18:35.043Z,99023.14
2019-03-08T23:21:06.595Z,99021.61
2019-03-08T23:23:37.906Z,99016.72
2019-03-08T23:26:09.193Z,99019.77
2019-03-08T23:28:53.177Z,99014.88
2019-03-08T23:31:37.296Z,99014.88
2019-03-08T23:34:08.860Z,99007.98
2019-03-08T23:36:41.068Z,99003.91
2019-03-08T23:39:13.200Z,99008.56
2019-03-08T23:41:44.567Z,98885.08
2019-03-08T23:44:15.845Z,99006.95
2019-03-08T23:46:47.535Z,99005.53
2019-03-08T23:49:19.177Z,99008.17
2019-03-08T23:51:52.102Z,99005.71
2019-03-08T23:54:23.572Z,99007.72
2019-03-08T23:56:54.830Z,99010.77
2019-03-08T23:59:26.184Z,99012.41
